createdAt,value
2022-11-14T00:01:09.849Z,15.37
2022-11-14T00:03:37.993Z,16.37
2022-11-14T00:06:07.524Z,15.93
2022-11-14T00:08:36.271Z,15.60
2022-11-14T00:11:05.757Z,14.93
2022-11-14T00:13:33.824Z,19.00
2022-11-14T00:16:01.821Z,17.77
2022-11-14T00:18:30.083Z,17.10
2022-11-14T00:20:58.359Z,19.77
2022-11-14T00:23:26.408Z,17.77
2022-11-14T00:25:54.454Z,19.83
2022-11-14T00:28:23.817Z,18.07
2022-11-14T00:30:51.831Z,22.93
2022-11-14T00:33:21.636Z,18.37
2022-11-14T00:35:54.161Z,17.93
2022-11-14T00:38:22.742Z,20.83
2022-11-14T00:40:51.052Z,20.10
2022-11-14T00:43:19.099Z,20.53
2022-11-14T00:45:49.316Z,20.07
2022-11-14T00:48:17.489Z,20.27
2022-11-14T00:50:45.899Z,25.30
2022-11-14T00:53:13.995Z,22.50
2022-11-14T00:55:43.510Z,22.43
2022-11-14T00:58:11.722Z,24.40
2022-11-14T01:00:40.182Z,25.53
2022-11-14T01:03:09.672Z,24.63
2022-11-14T01:05:42.977Z,24.87
2022-11-14T01:08:11.150Z,24.40
2022-11-14T01:10:41.782Z,23.77
2022-11-14T01:13:09.980Z,22.70
2022-11-14T01:15:40.459Z,21.67
2022-11-14T01:18:11.615Z,23.67
2022-11-14T01:20:40.798Z,24.70
2022-11-14T01:23:09.539Z,25.03
2022-11-14T01:25:38.521Z,22.37
2022-11-14T01:28:07.978Z,23.63
2022-11-14T01:30:36.091Z,24.83
2022-11-14T01:33:04.227Z,24.43
2022-11-14T01:35:34.479Z,29.47
2022-11-14T01:38:02.700Z,29.07
2022-11-14T01:44:41.490Z,26.83
2022-11-14T01:47:09.591Z,24.53
2022-11-14T01:49:40.946Z,26.53
2022-11-14T01:52:13.731Z,27.03
2022-11-14T01:54:46.039Z,30.33
2022-11-14T01:57:16.531Z,27.23
2022-11-14T01:59:49.071Z,32.40
2022-11-14T02:02:19.664Z,27.83
2022-11-14T02:04:52.936Z,30.43
2022-11-14T02:07:23.675Z,32.07
2022-11-14T02:09:52.539Z,33.17
2022-11-14T02:12:21.083Z,34.00
2022-11-14T02:14:53.324Z,34.03
2022-11-14T02:17:29.442Z,31.37
2022-11-14T02:20:07.568Z,36.20
2022-11-14T02:22:35.695Z,32.50
2022-11-14T02:25:04.195Z,33.10
2022-11-14T02:27:33.948Z,34.23
2022-11-14T02:30:05.941Z,36.87
2022-11-14T02:32:50.997Z,31.43
2022-11-14T02:35:23.402Z,37.83
2022-11-14T02:37:51.455Z,37.17
2022-11-14T02:40:19.611Z,32.37
2022-11-14T02:42:47.644Z,30.23
2022-11-14T02:52:49.228Z,35.67
2022-11-14T02:55:17.390Z,35.57
2022-11-14T02:57:45.401Z,35.27
2022-11-14T03:05:53.593Z,37.00
2022-11-14T03:08:22.999Z,36.53
2022-11-14T03:10:51.025Z,44.37
2022-11-14T03:17:10.244Z,38.23
2022-11-14T03:19:38.494Z,35.27
2022-11-14T03:22:07.008Z,37.93
2022-11-14T03:24:36.431Z,36.60
2022-11-14T03:27:04.452Z,42.10
2022-11-14T03:29:32.499Z,38.63
2022-11-14T03:32:00.612Z,41.37
2022-11-14T03:34:28.636Z,35.70
2022-11-14T03:36:56.672Z,39.10
2022-11-14T03:39:24.713Z,40.50
2022-11-14T03:42:33.982Z,43.50
2022-11-14T03:45:02.062Z,43.20
2022-11-14T03:47:30.144Z,36.73
2022-11-14T03:49:58.254Z,40.67
2022-11-14T03:52:26.871Z,43.13
2022-11-14T03:54:54.927Z,42.77
2022-11-14T03:57:22.963Z,41.87
2022-11-14T03:59:52.387Z,39.77
2022-11-14T04:02:20.414Z,39.63
2022-11-14T04:04:48.440Z,42.43
2022-11-14T04:07:16.554Z,44.93
2022-11-14T04:09:47.132Z,44.10
2022-11-14T04:12:16.011Z,48.50
2022-11-14T04:14:44.226Z,42.90
2022-11-14T04:17:13.648Z,45.43
2022-11-14T04:19:41.706Z,43.87
2022-11-14T04:22:09.720Z,44.57
2022-11-14T04:24:37.721Z,44.50
2022-11-14T04:27:05.846Z,48.13
2022-11-14T04:29:33.835Z,40.43
2022-11-14T04:32:01.796Z,39.20
2022-11-14T04:34:31.189Z,44.17
2022-11-14T04:36:59.282Z,45.43
2022-11-14T04:39:27.274Z,42.43
2022-11-14T04:41:55.368Z,42.97
2022-11-14T04:44:23.392Z,46.27
2022-11-14T04:46:51.416Z,39.77
2022-11-14T04:49:19.524Z,46.60
2022-11-14T04:51:48.936Z,45.07
2022-11-14T04:54:16.983Z,42.50
2022-11-14T04:56:45.009Z,40.40
2022-11-14T04:59:15.830Z,40.07
2022-11-14T05:01:47.818Z,41.27
2022-11-14T05:04:16.307Z,36.93
2022-11-14T05:06:44.508Z,43.07
2022-11-14T05:09:14.025Z,41.10
2022-11-14T05:11:42.034Z,35.57
2022-11-14T05:14:10.112Z,39.97
2022-11-14T05:16:38.147Z,39.23
2022-11-14T05:19:06.230Z,35.37
2022-11-14T05:21:34.276Z,37.70
2022-11-14T05:24:02.356Z,42.07
2022-11-14T05:26:31.749Z,36.07
2022-11-14T05:28:59.808Z,38.27
2022-11-14T05:31:27.869Z,38.30
2022-11-14T05:33:55.887Z,31.93
2022-11-14T05:36:24.048Z,37.37
2022-11-14T05:38:52.105Z,34.20
2022-11-14T05:41:21.161Z,33.33
2022-11-14T05:43:50.567Z,38.23
2022-11-14T05:46:18.653Z,33.37
2022-11-14T05:48:46.674Z,33.13
2022-11-14T05:51:15.109Z,32.77
2022-11-14T05:53:43.242Z,36.37
2022-11-14T05:56:13.350Z,33.43
2022-11-14T05:58:42.064Z,34.50
2022-11-14T06:01:13.889Z,35.47
2022-11-14T06:03:43.281Z,36.67
2022-11-14T06:06:13.618Z,37.40
2022-11-14T06:08:42.172Z,32.27
2022-11-14T06:11:12.245Z,33.77
2022-11-14T06:13:40.490Z,38.00
2022-11-14T06:16:11.485Z,36.23
2022-11-14T06:18:40.188Z,36.10
2022-11-14T06:21:12.020Z,34.17
2022-11-14T06:31:12.691Z,34.60
2022-11-14T06:33:40.712Z,38.17
2022-11-14T06:36:10.123Z,36.27
2022-11-14T06:38:39.710Z,35.43
2022-11-14T06:41:09.191Z,37.60
2022-11-14T06:43:38.230Z,35.33
2022-11-14T06:46:07.027Z,32.40
2022-11-14T06:48:37.275Z,37.00
2022-11-14T06:51:06.904Z,31.03
2022-11-14T06:53:36.779Z,33.70
2022-11-14T06:56:06.949Z,37.07
2022-11-14T06:58:36.832Z,32.27
2022-11-14T07:01:06.101Z,35.33
2022-11-14T07:03:34.441Z,33.03
2022-11-14T07:06:05.388Z,33.33
2022-11-14T07:08:34.726Z,34.27
2022-11-14T07:11:04.070Z,32.57
2022-11-14T07:13:32.702Z,30.97
2022-11-14T07:16:00.745Z,33.70
2022-11-14T07:18:31.101Z,30.53
2022-11-14T07:21:00.567Z,30.90
2022-11-14T07:23:31.243Z,31.83
2022-11-14T07:26:03.009Z,32.57
2022-11-14T07:28:32.281Z,33.50
2022-11-14T07:31:00.644Z,31.53
2022-11-14T07:33:28.707Z,31.33
2022-11-14T07:35:56.751Z,30.43
2022-11-14T07:38:24.950Z,32.37
2022-11-14T07:41:00.092Z,29.47
2022-11-14T07:43:29.133Z,31.30
2022-11-14T07:46:01.213Z,27.07
2022-11-14T07:48:29.726Z,28.23
2022-11-14T07:51:01.091Z,30.23
2022-11-14T07:53:29.834Z,32.60
2022-11-14T07:56:04.083Z,29.07
2022-11-14T07:58:32.480Z,26.43
2022-11-14T08:01:02.135Z,23.83
2022-11-14T08:03:30.607Z,26.90
2022-11-14T08:06:02.461Z,27.80
2022-11-14T08:08:30.875Z,26.97
2022-11-14T08:11:01.483Z,28.77
2022-11-14T08:13:32.989Z,25.20
2022-11-14T08:16:10.761Z,19.97
2022-11-14T08:18:40.450Z,21.67
2022-11-14T08:21:08.727Z,17.90
2022-11-14T08:23:36.795Z,14.87
2022-11-14T08:26:06.368Z,14.87
2022-11-14T08:28:34.517Z,15.33
2022-11-14T08:31:02.857Z,11.93
2022-11-14T08:33:31.451Z,13.47
2022-11-14T08:36:02.043Z,12.40
2022-11-14T08:38:30.277Z,10.53
2022-11-14T08:40:59.814Z,9.17
2022-11-14T08:43:29.256Z,9.37
2022-11-14T08:46:01.481Z,10.17
2022-11-14T08:48:31.052Z,10.07
2022-11-14T08:51:02.984Z,9.70
2022-11-14T08:53:31.097Z,10.73
2022-11-14T08:55:59.126Z,10.07
2022-11-14T08:58:32.039Z,9.07
2022-11-14T09:01:05.531Z,10.57
2022-11-14T09:03:34.128Z,10.90
2022-11-14T09:06:02.607Z,9.57
2022-11-14T09:08:31.720Z,10.43
2022-11-14T09:11:05.115Z,8.87
2022-11-14T09:13:35.963Z,12.23
2022-11-14T09:16:04.133Z,11.13
2022-11-14T09:18:32.798Z,11.53
2022-11-14T09:21:02.208Z,12.07
2022-11-14T09:23:30.859Z,10.60
2022-11-14T09:25:59.335Z,12.17
2022-11-14T09:28:27.431Z,9.73
2022-11-14T09:31:01.734Z,11.67
2022-11-14T09:33:30.087Z,10.23
2022-11-14T09:35:59.423Z,12.67
2022-11-14T09:38:27.660Z,12.27
2022-11-14T09:41:06.435Z,11.03
2022-11-14T09:43:49.044Z,11.53
2022-11-14T09:46:23.698Z,12.90
2022-11-14T09:48:53.767Z,12.53
2022-11-14T09:51:24.816Z,10.83
2022-11-14T09:53:58.394Z,13.23
2022-11-14T09:56:27.931Z,12.77
2022-11-14T09:58:57.574Z,13.80
2022-11-14T10:01:37.276Z,14.47
2022-11-14T10:05:09.875Z,15.40
2022-11-14T10:07:47.864Z,13.97
2022-11-14T10:10:27.564Z,15.33
2022-11-14T10:13:06.842Z,14.13
2022-11-14T10:15:43.954Z,15.00
2022-11-14T10:18:29.678Z,13.27
2022-11-14T10:21:02.020Z,14.37
2022-11-14T10:23:40.319Z,16.93
2022-11-14T10:26:14.771Z,16.90
2022-11-14T10:29:01.825Z,17.70
2022-11-14T10:31:40.366Z,15.50
2022-11-14T10:34:16.554Z,15.47
2022-11-14T10:36:57.495Z,16.67
2022-11-14T10:39:39.408Z,14.23
2022-11-14T10:42:15.517Z,15.03
2022-11-14T10:44:52.042Z,16.63
2022-11-14T10:47:24.248Z,18.13
2022-11-14T10:49:57.122Z,15.37
2022-11-14T10:52:37.526Z,17.13
2022-11-14T10:55:09.383Z,18.33
2022-11-14T10:57:37.472Z,14.93
2022-11-14T11:00:13.209Z,15.90
2022-11-14T11:02:53.728Z,16.30
2022-11-14T11:05:25.464Z,15.97
2022-11-14T11:08:28.640Z,16.40
2022-11-14T11:11:18.308Z,18.97
2022-11-14T11:13:54.057Z,17.17
2022-11-14T11:16:24.229Z,19.63
2022-11-14T11:18:52.483Z,20.30
2022-11-14T11:21:23.747Z,18.00
2022-11-14T11:23:54.680Z,16.37
2022-11-14T11:26:25.959Z,18.53
2022-11-14T11:29:08.897Z,19.60
2022-11-14T11:31:53.958Z,20.33
2022-11-14T11:34:26.451Z,21.10
2022-11-14T11:37:02.457Z,21.33
2022-11-14T11:39:34.278Z,20.33
2022-11-14T11:42:10.334Z,20.03
2022-11-14T11:44:47.307Z,22.93
2022-11-14T11:47:18.017Z,19.43
2022-11-14T11:49:53.436Z,21.83
2022-11-14T11:52:33.122Z,21.23
2022-11-14T11:55:14.024Z,22.83
2022-11-14T11:57:47.662Z,22.70
2022-11-14T12:00:19.021Z,22.00
2022-11-14T12:02:50.464Z,19.50
2022-11-14T12:05:26.713Z,23.17
2022-11-14T12:08:04.227Z,18.93
2022-11-14T12:10:37.360Z,20.50
2022-11-14T12:13:27.827Z,23.47
2022-11-14T12:16:13.333Z,26.37
2022-11-14T12:19:12.631Z,24.13
2022-11-14T12:22:08.704Z,22.97
2022-11-14T12:25:06.201Z,22.17
2022-11-14T12:27:50.577Z,20.20
2022-11-14T12:30:21.863Z,22.27
2022-11-14T12:32:53.836Z,21.10
2022-11-14T12:35:25.924Z,22.47
2022-11-14T12:37:56.527Z,22.53
2022-11-14T12:40:29.938Z,25.20
2022-11-14T12:42:59.975Z,22.47
2022-11-14T12:46:00.106Z,22.20
2022-11-14T12:48:34.114Z,20.80
2022-11-14T12:51:03.183Z,21.30
2022-11-14T12:53:46.716Z,22.67
2022-11-14T12:57:00.030Z,23.37
2022-11-14T12:59:40.363Z,22.90
2022-11-14T13:02:44.191Z,23.83
2022-11-14T13:05:41.807Z,20.63
2022-11-14T13:08:23.305Z,21.57
2022-11-14T13:10:51.511Z,24.43
2022-11-14T13:13:38.147Z,20.13
2022-11-14T13:16:35.716Z,22.43
2022-11-14T13:19:34.869Z,22.67
2022-11-14T13:22:33.692Z,20.90
2022-11-14T13:25:20.669Z,21.00
2022-11-14T13:31:19.161Z,20.80
2022-11-14T13:33:49.831Z,21.87
2022-11-14T13:36:30.728Z,22.17
2022-11-14T13:39:14.532Z,24.93
2022-11-14T13:42:17.131Z,24.50
2022-11-14T13:45:06.379Z,24.20
2022-11-14T13:47:58.626Z,23.63
2022-11-14T13:50:31.133Z,22.40
2022-11-14T13:52:59.785Z,24.53
2022-11-14T13:55:40.353Z,25.83
2022-11-14T13:58:23.239Z,24.70
2022-11-14T14:01:09.886Z,22.87
2022-11-14T14:03:51.287Z,24.23
2022-11-14T14:06:38.726Z,27.57
2022-11-14T14:09:22.651Z,26.90
2022-11-14T14:12:05.632Z,22.03
2022-11-14T14:14:45.141Z,19.43
2022-11-14T14:17:19.068Z,23.43
2022-11-14T14:20:05.488Z,20.93
2022-11-14T14:22:40.566Z,25.13
2022-11-14T14:25:17.430Z,22.33
2022-11-14T14:27:58.274Z,25.27
2022-11-14T14:30:26.508Z,21.33
2022-11-14T14:33:05.058Z,23.60
2022-11-14T14:35:40.441Z,22.93
2022-11-14T14:38:13.416Z,23.87
2022-11-14T14:40:43.215Z,22.50
2022-11-14T14:43:23.399Z,22.80
2022-11-14T14:45:54.031Z,22.83
2022-11-14T14:48:26.522Z,22.10
2022-11-14T14:50:57.842Z,22.97
2022-11-14T14:53:28.518Z,26.77
2022-11-14T14:55:58.712Z,25.30
2022-11-14T14:58:29.720Z,21.27
2022-11-14T15:01:01.403Z,21.33
2022-11-14T15:03:36.803Z,25.43
2022-11-14T15:06:18.998Z,23.37
2022-11-14T15:08:47.636Z,21.93
2022-11-14T15:11:16.530Z,22.47
2022-11-14T15:13:45.466Z,19.83
2022-11-14T15:16:14.067Z,22.60
2022-11-14T15:18:42.263Z,23.17
2022-11-14T15:21:27.289Z,21.47
2022-11-14T15:24:04.387Z,23.37
2022-11-14T15:26:32.685Z,21.90
2022-11-14T15:29:08.734Z,24.53
2022-11-14T15:31:37.978Z,22.90
2022-11-14T15:34:08.185Z,20.80
2022-11-14T15:36:37.638Z,18.77
2022-11-14T15:39:22.501Z,19.13
2022-11-14T15:41:50.545Z,21.10
2022-11-14T15:44:31.832Z,19.83
2022-11-14T15:47:00.309Z,20.13
2022-11-14T15:49:28.886Z,18.37
2022-11-14T15:52:00.192Z,21.47
2022-11-14T15:54:30.170Z,19.37
2022-11-14T15:56:59.748Z,18.47
2022-11-14T15:59:30.589Z,18.20
2022-11-14T16:02:04.380Z,17.67
2022-11-14T16:04:35.050Z,18.00
2022-11-14T16:07:04.638Z,18.10
2022-11-14T16:09:32.791Z,18.03
2022-11-14T16:12:00.849Z,19.50
2022-11-14T16:14:29.050Z,15.77
2022-11-14T16:16:57.124Z,16.23
2022-11-14T16:19:25.223Z,16.30
2022-11-14T16:21:53.241Z,14.63
2022-11-14T16:24:24.448Z,19.20
2022-11-14T16:26:52.440Z,17.77
2022-11-14T16:29:20.607Z,18.93
2022-11-14T16:31:48.656Z,19.00
2022-11-14T16:34:19.960Z,16.97
2022-11-14T16:36:48.728Z,19.13
2022-11-14T16:39:16.831Z,19.10
2022-11-14T16:41:46.215Z,17.13
2022-11-14T16:44:16.986Z,19.77
2022-11-14T16:46:45.335Z,26.47
2022-11-14T16:49:15.367Z,21.33
2022-11-14T16:51:48.851Z,15.67
2022-11-14T16:54:18.173Z,18.37
2022-11-14T16:56:48.019Z,17.80
2022-11-14T16:59:16.112Z,18.43
2022-11-14T17:01:44.194Z,16.90
2022-11-14T17:04:12.668Z,19.17
2022-11-14T17:06:40.846Z,17.43
2022-11-14T17:09:08.979Z,16.50
2022-11-14T17:11:37.026Z,17.93
2022-11-14T17:14:06.576Z,18.00
2022-11-14T17:16:34.721Z,15.63
2022-11-14T17:19:03.023Z,15.57
2022-11-14T17:21:31.466Z,15.00
2022-11-14T17:24:02.575Z,16.83
2022-11-14T17:26:31.267Z,16.40
2022-11-14T17:28:59.456Z,17.60
2022-11-14T17:31:32.512Z,17.80
2022-11-14T17:34:03.169Z,16.87
2022-11-14T17:36:32.093Z,17.33
2022-11-14T17:39:00.641Z,21.33
2022-11-14T17:41:29.203Z,17.10
2022-11-14T17:43:58.972Z,17.73
2022-11-14T17:46:28.694Z,18.33
2022-11-14T17:48:56.796Z,19.23
2022-11-14T17:51:25.566Z,17.23
2022-11-14T17:53:53.837Z,15.43
2022-11-14T17:56:24.507Z,16.93
2022-11-14T17:58:54.226Z,17.30
2022-11-14T18:01:30.359Z,23.20
2022-11-14T18:04:05.558Z,19.60
2022-11-14T18:06:35.094Z,19.03
2022-11-14T18:09:08.121Z,18.20
2022-11-14T18:11:38.546Z,18.50
2022-11-14T18:14:06.710Z,19.07
2022-11-14T18:16:50.825Z,17.43
2022-11-14T18:19:27.295Z,20.40
2022-11-14T18:21:55.348Z,18.30
2022-11-14T18:24:23.678Z,16.03
2022-11-14T18:26:52.556Z,18.80
2022-11-14T18:29:20.670Z,20.23
2022-11-14T18:31:49.242Z,18.17
2022-11-14T18:34:17.323Z,16.67
2022-11-14T18:36:46.975Z,19.23
2022-11-14T18:39:17.999Z,16.97
2022-11-14T18:41:46.084Z,18.17
2022-11-14T18:44:14.174Z,18.70
2022-11-14T18:46:42.244Z,19.00
2022-11-14T18:49:11.174Z,21.07
2022-11-14T18:51:42.164Z,19.87
2022-11-14T18:54:14.029Z,20.77
2022-11-14T18:56:42.047Z,21.27
2022-11-14T18:59:10.448Z,17.87
2022-11-14T19:01:38.668Z,20.43
2022-11-14T19:04:08.199Z,19.60
2022-11-14T19:06:37.743Z,24.03
2022-11-14T19:09:11.123Z,21.03
2022-11-14T19:11:58.340Z,18.97
2022-11-14T19:14:26.468Z,20.43
2022-11-14T19:16:54.695Z,19.73
2022-11-14T19:19:22.811Z,20.33
2022-11-14T19:21:51.308Z,20.80
2022-11-14T19:24:19.806Z,19.03
2022-11-14T19:26:49.244Z,21.93
2022-11-14T19:29:17.534Z,19.50
2022-11-14T19:31:46.189Z,19.83
2022-11-14T19:34:15.434Z,21.27
2022-11-14T19:36:59.302Z,21.30
2022-11-14T19:39:27.816Z,19.60
2022-11-14T19:41:57.237Z,17.23
2022-11-14T19:55:48.226Z,21.43
2022-11-14T19:58:17.644Z,22.80
2022-11-14T20:00:45.681Z,27.67
2022-11-14T20:03:13.685Z,28.30
2022-11-14T20:05:41.749Z,24.67
2022-11-14T20:08:09.816Z,24.73
2022-11-14T20:10:47.748Z,24.00
2022-11-14T20:13:17.407Z,24.47
2022-11-14T20:15:46.644Z,20.60
2022-11-14T20:18:14.748Z,22.37
2022-11-14T20:20:42.853Z,21.50
2022-11-14T20:23:11.253Z,21.93
2022-11-14T20:25:39.415Z,23.70
2022-11-14T20:28:09.232Z,21.60
2022-11-14T20:30:42.380Z,22.47
2022-11-14T20:33:10.528Z,18.63
2022-11-14T20:35:39.446Z,21.37
2022-11-14T20:38:07.900Z,23.50
2022-11-14T20:40:36.236Z,25.67
2022-11-14T20:43:04.378Z,21.77
2022-11-14T20:45:32.495Z,22.60
2022-11-14T20:48:01.886Z,23.37
2022-11-14T20:50:30.718Z,25.90
2022-11-14T20:52:58.767Z,23.90
2022-11-14T20:55:26.820Z,25.60
2022-11-14T20:57:54.878Z,21.47
2022-11-14T21:00:22.988Z,21.90
2022-11-14T21:02:51.008Z,22.63
2022-11-14T21:05:20.428Z,23.13
2022-11-14T21:07:48.441Z,17.30
2022-11-14T21:10:34.569Z,18.23
2022-11-14T21:13:20.049Z,17.97
2022-11-14T21:15:48.082Z,15.50
2022-11-14T21:18:16.173Z,19.43
2022-11-14T21:20:45.617Z,15.03
2022-11-14T21:23:13.811Z,18.00
2022-11-14T21:25:41.916Z,17.83
2022-11-14T21:28:09.984Z,18.90
2022-11-14T21:30:38.118Z,16.50
2022-11-14T21:33:06.167Z,19.00
2022-11-14T21:35:35.921Z,17.17
2022-11-14T21:38:05.341Z,16.00
2022-11-14T21:40:33.416Z,17.20
2022-11-14T21:43:01.427Z,16.33
2022-11-14T21:45:29.472Z,17.63
2022-11-14T21:47:57.697Z,20.03
2022-11-14T21:50:25.748Z,13.47
2022-11-14T21:52:53.759Z,13.93
2022-11-14T21:55:23.181Z,15.67
2022-11-14T21:57:55.091Z,18.53
2022-11-14T22:00:23.173Z,16.63
2022-11-14T22:03:08.978Z,15.67
2022-11-14T22:05:37.019Z,18.53
2022-11-14T22:08:05.154Z,16.80
2022-11-14T22:10:34.555Z,13.93
2022-11-14T22:13:02.580Z,16.80
2022-11-14T22:15:30.624Z,16.43
2022-11-14T22:17:58.698Z,17.83
2022-11-14T22:20:26.698Z,13.97
2022-11-14T22:22:55.482Z,16.20
2022-11-14T22:25:23.505Z,17.37
2022-11-14T22:27:54.611Z,16.47
2022-11-14T22:30:22.633Z,22.73
2022-11-14T22:32:50.661Z,17.53
2022-11-14T22:35:18.746Z,17.20
2022-11-14T22:37:47.014Z,17.43
2022-11-14T22:40:15.158Z,16.27
2022-11-14T22:42:43.271Z,21.50
2022-11-14T22:45:12.762Z,20.60
2022-11-14T22:47:40.817Z,20.83
2022-11-14T22:50:09.692Z,18.83
2022-11-14T22:52:37.780Z,19.93
2022-11-14T22:55:06.355Z,21.30
2022-11-14T22:57:34.442Z,22.13
2022-11-14T23:00:02.484Z,20.93
2022-11-14T23:02:31.821Z,23.77
2022-11-14T23:04:59.837Z,23.13
2022-11-14T23:07:27.835Z,25.87
2022-11-14T23:09:55.868Z,27.13
2022-11-14T23:12:23.872Z,26.07
2022-11-14T23:14:51.917Z,25.50
2022-11-14T23:17:19.936Z,27.13
2022-11-14T23:19:49.321Z,28.00
2022-11-14T23:22:17.339Z,27.53
2022-11-14T23:24:45.371Z,26.13
2022-11-14T23:27:13.392Z,31.77
2022-11-14T23:29:41.417Z,27.00
2022-11-14T23:32:09.462Z,23.17
2022-11-14T23:34:37.492Z,22.80
2022-11-14T23:37:06.919Z,23.60
2022-11-14T23:39:34.970Z,21.73
2022-11-14T23:42:02.964Z,24.00
2022-11-14T23:44:31.001Z,21.93
2022-11-14T23:46:58.965Z,22.30
2022-11-14T23:49:27.080Z,21.10
2022-11-14T23:51:55.099Z,24.17
2022-11-14T23:54:24.555Z,26.10
2022-11-14T23:56:52.548Z,27.07
2022-11-14T23:59:20.549Z,23.63
